sensor_id;sensor_type;location;lat;lon;timestamp;temperature;humidity
16076;DHT22;8142;48.242;11.644;2022-10-16T00:01:17;13.60;99.90
16076;DHT22;8142;48.242;11.644;2022-10-16T00:03:44;13.70;99.90
16076;DHT22;8142;48.242;11.644;2022-10-16T00:06:10;13.60;99.90
16076;DHT22;8142;48.242;11.644;2022-10-16T00:08:37;13.60;99.90
16076;DHT22;8142;48.242;11.644;2022-10-16T00:11:07;13.70;99.90
16076;DHT22;8142;48.242;11.644;2022-10-16T00:13:34;13.60;99.90
16076;DHT22;8142;48.242;11.644;2022-10-16T00:16:00;13.60;99.90
16076;DHT22;8142;48.242;11.644;2022-10-16T00:18:28;13.60;99.90
16076;DHT22;8142;48.242;11.644;2022-10-16T00:20:54;13.60;99.90
16076;DHT22;8142;48.242;11.644;2022-10-16T00:23:20;13.60;99.90
16076;DHT22;8142;48.242;11.644;2022-10-16T00:25:55;13.60;99.90
16076;DHT22;8142;48.242;11.644;2022-10-16T00:28:22;13.60;99.90
16076;DHT22;8142;48.242;11.644;2022-10-16T00:30:48;13.60;99.90
16076;DHT22;8142;48.242;11.644;2022-10-16T00:33:14;13.60;99.90
16076;DHT22;8142;48.242;11.644;2022-10-16T00:35:39;13.60;99.90
16076;DHT22;8142;48.242;11.644;2022-10-16T00:38:05;13.60;99.90
16076;DHT22;8142;48.242;11.644;2022-10-16T00:40:31;13.60;99.90
16076;DHT22;8142;48.242;11.644;2022-10-16T00:42:57;13.60;99.90
16076;DHT22;8142;48.242;11.644;2022-10-16T00:45:23;13.60;99.90
16076;DHT22;8142;48.242;11.644;2022-10-16T00:47:50;13.50;99.90
16076;DHT22;8142;48.242;11.644;2022-10-16T00:50:24;13.60;99.90
16076;DHT22;8142;48.242;11.644;2022-10-16T00:52:52;13.60;99.90
16076;DHT22;8142;48.242;11.644;2022-10-16T00:55:19;13.60;99.90
16076;DHT22;8142;48.242;11.644;2022-10-16T00:57:46;13.60;99.90
16076;DHT22;8142;48.242;11.644;2022-10-16T01:00:17;13.50;99.90
16076;DHT22;8142;48.242;11.644;2022-10-16T01:02:43;13.50;99.90
16076;DHT22;8142;48.242;11.644;2022-10-16T01:05:09;13.50;99.90
16076;DHT22;8142;48.242;11.644;2022-10-16T01:10:35;13.50;99.90
16076;DHT22;8142;48.242;11.644;2022-10-16T01:18:39;13.60;99.90
16076;DHT22;8142;48.242;11.644;2022-10-16T01:21:10;13.50;99.90
16076;DHT22;8142;48.242;11.644;2022-10-16T01:23:55;13.60;99.90
16076;DHT22;8142;48.242;11.644;2022-10-16T01:29:22;13.50;99.90
16076;DHT22;8142;48.242;11.644;2022-10-16T01:31:57;13.50;99.90
16076;DHT22;8142;48.242;11.644;2022-10-16T01:34:31;13.50;99.90
16076;DHT22;8142;48.242;11.644;2022-10-16T01:37:12;13.50;99.90
16076;DHT22;8142;48.242;11.644;2022-10-16T01:39:42;13.50;99.90
16076;DHT22;8142;48.242;11.644;2022-10-16T01:42:16;13.60;99.90
16076;DHT22;8142;48.242;11.644;2022-10-16T01:44:43;13.50;99.90
16076;DHT22;8142;48.242;11.644;2022-10-16T01:47:13;13.50;99.90
16076;DHT22;8142;48.242;11.644;2022-10-16T01:49:41;13.60;99.90
16076;DHT22;8142;48.242;11.644;2022-10-16T01:52:12;13.50;99.90
16076;DHT22;8142;48.242;11.644;2022-10-16T01:54:42;13.50;99.90
16076;DHT22;8142;48.242;11.644;2022-10-16T01:57:10;13.50;99.90
16076;DHT22;8142;48.242;11.644;2022-10-16T01:59:44;13.50;99.90
16076;DHT22;8142;48.242;11.644;2022-10-16T02:02:11;13.50;99.90
16076;DHT22;8142;48.242;11.644;2022-10-16T02:04:45;13.50;99.90
16076;DHT22;8142;48.242;11.644;2022-10-16T02:07:11;13.50;99.90
16076;DHT22;8142;48.242;11.644;2022-10-16T02:09:38;13.50;99.90
16076;DHT22;8142;48.242;11.644;2022-10-16T02:12:34;13.50;99.90
16076;DHT22;8142;48.242;11.644;2022-10-16T02:15:01;13.50;99.90
16076;DHT22;8142;48.242;11.644;2022-10-16T02:17:28;13.50;99.90
16076;DHT22;8142;48.242;11.644;2022-10-16T02:19:55;13.50;99.90
16076;DHT22;8142;48.242;11.644;2022-10-16T02:22:36;13.50;99.90
16076;DHT22;8142;48.242;11.644;2022-10-16T02:25:10;13.50;99.90
16076;DHT22;8142;48.242;11.644;2022-10-16T02:30:39;13.50;99.90
16076;DHT22;8142;48.242;11.644;2022-10-16T02:33:09;13.50;99.90
16076;DHT22;8142;48.242;11.644;2022-10-16T02:35:36;13.50;99.90
16076;DHT22;8142;48.242;11.644;2022-10-16T02:38:03;13.50;99.90
16076;DHT22;8142;48.242;11.644;2022-10-16T02:40:29;13.50;99.90
16076;DHT22;8142;48.242;11.644;2022-10-16T02:42:55;13.50;99.90
16076;DHT22;8142;48.242;11.644;2022-10-16T02:45:22;13.40;99.90
16076;DHT22;8142;48.242;11.644;2022-10-16T02:47:48;13.40;99.90
16076;DHT22;8142;48.242;11.644;2022-10-16T02:50:15;13.40;99.90
16076;DHT22;8142;48.242;11.644;2022-10-16T02:52:41;13.40;99.90
16076;DHT22;8142;48.242;11.644;2022-10-16T02:55:07;13.40;99.90
16076;DHT22;8142;48.242;11.644;2022-10-16T02:57:33;13.40;99.90
16076;DHT22;8142;48.242;11.644;2022-10-16T02:59:59;13.40;99.90
16076;DHT22;8142;48.242;11.644;2022-10-16T03:02:25;13.40;99.90
16076;DHT22;8142;48.242;11.644;2022-10-16T03:04:51;13.30;99.90
16076;DHT22;8142;48.242;11.644;2022-10-16T03:07:16;13.40;99.90
16076;DHT22;8142;48.242;11.644;2022-10-16T03:09:42;13.30;99.90
16076;DHT22;8142;48.242;11.644;2022-10-16T03:12:08;13.20;99.90
16076;DHT22;8142;48.242;11.644;2022-10-16T03:14:34;13.30;99.90
16076;DHT22;8142;48.242;11.644;2022-10-16T03:17:00;13.30;99.90
16076;DHT22;8142;48.242;11.644;2022-10-16T03:19:25;13.20;99.90
16076;DHT22;8142;48.242;11.644;2022-10-16T03:21:51;13.20;99.90
16076;DHT22;8142;48.242;11.644;2022-10-16T03:24:17;13.20;99.90
16076;DHT22;8142;48.242;11.644;2022-10-16T03:26:43;13.20;99.90
16076;DHT22;8142;48.242;11.644;2022-10-16T03:29:09;13.10;99.90
16076;DHT22;8142;48.242;11.644;2022-10-16T03:31:34;13.10;99.90
16076;DHT22;8142;48.242;11.644;2022-10-16T03:34:00;13.10;99.90
16076;DHT22;8142;48.242;11.644;2022-10-16T03:36:26;13.20;99.90
16076;DHT22;8142;48.242;11.644;2022-10-16T03:38:52;13.20;99.90
16076;DHT22;8142;48.242;11.644;2022-10-16T03:41:18;13.10;99.90
16076;DHT22;8142;48.242;11.644;2022-10-16T03:43:44;13.10;99.90
16076;DHT22;8142;48.242;11.644;2022-10-16T03:46:09;13.10;99.90
16076;DHT22;8142;48.242;11.644;2022-10-16T03:48:35;13.10;99.90
16076;DHT22;8142;48.242;11.644;2022-10-16T03:51:01;13.10;99.90
16076;DHT22;8142;48.242;11.644;2022-10-16T03:53:27;13.10;99.90
16076;DHT22;8142;48.242;11.644;2022-10-16T03:55:53;13.20;99.90
16076;DHT22;8142;48.242;11.644;2022-10-16T03:58:19;13.10;99.90
16076;DHT22;8142;48.242;11.644;2022-10-16T04:00:46;13.10;99.90
16076;DHT22;8142;48.242;11.644;2022-10-16T04:03:13;13.10;99.90
16076;DHT22;8142;48.242;11.644;2022-10-16T04:05:39;13.00;99.90
16076;DHT22;8142;48.242;11.644;2022-10-16T04:08:05;12.80;99.90
16076;DHT22;8142;48.242;11.644;2022-10-16T04:10:31;12.70;99.90
16076;DHT22;8142;48.242;11.644;2022-10-16T04:12:57;12.50;99.90
16076;DHT22;8142;48.242;11.644;2022-10-16T04:15:23;12.30;99.90
16076;DHT22;8142;48.242;11.644;2022-10-16T04:17:50;12.20;99.90
16076;DHT22;8142;48.242;11.644;2022-10-16T04:20:16;12.10;99.90
16076;DHT22;8142;48.242;11.644;2022-10-16T04:22:42;12.00;99.90
16076;DHT22;8142;48.242;11.644;2022-10-16T04:25:08;11.90;99.90
16076;DHT22;8142;48.242;11.644;2022-10-16T04:27:34;11.90;99.90
16076;DHT22;8142;48.242;11.644;2022-10-16T04:30:00;11.80;99.90
16076;DHT22;8142;48.242;11.644;2022-10-16T04:32:27;11.80;99.90
16076;DHT22;8142;48.242;11.644;2022-10-16T04:34:53;11.60;99.90
16076;DHT22;8142;48.242;11.644;2022-10-16T04:37:22;11.50;99.90
16076;DHT22;8142;48.242;11.644;2022-10-16T04:39:48;11.40;99.90
16076;DHT22;8142;48.242;11.644;2022-10-16T04:42:14;11.20;99.90
16076;DHT22;8142;48.242;11.644;2022-10-16T04:44:40;11.20;99.90
16076;DHT22;8142;48.242;11.644;2022-10-16T04:47:06;11.20;99.90
16076;DHT22;8142;48.242;11.644;2022-10-16T04:49:32;11.10;99.90
16076;DHT22;8142;48.242;11.644;2022-10-16T04:51:57;11.10;99.90
16076;DHT22;8142;48.242;11.644;2022-10-16T04:54:23;11.20;99.90
16076;DHT22;8142;48.242;11.644;2022-10-16T04:56:49;11.20;99.90
16076;DHT22;8142;48.242;11.644;2022-10-16T04:59:18;11.20;99.90
16076;DHT22;8142;48.242;11.644;2022-10-16T05:01:44;11.30;99.90
16076;DHT22;8142;48.242;11.644;2022-10-16T05:04:11;11.40;99.90
16076;DHT22;8142;48.242;11.644;2022-10-16T05:06:38;11.50;99.90
16076;DHT22;8142;48.242;11.644;2022-10-16T05:09:05;11.60;99.90
16076;DHT22;8142;48.242;11.644;2022-10-16T05:11:31;11.70;99.90
16076;DHT22;8142;48.242;11.644;2022-10-16T05:13:57;11.80;99.90
16076;DHT22;8142;48.242;11.644;2022-10-16T05:16:23;11.90;99.90
16076;DHT22;8142;48.242;11.644;2022-10-16T05:18:50;12.00;99.90
16076;DHT22;8142;48.242;11.644;2022-10-16T05:21:16;12.10;99.90
16076;DHT22;8142;48.242;11.644;2022-10-16T05:23:42;12.20;99.90
16076;DHT22;8142;48.242;11.644;2022-10-16T05:26:08;12.20;99.90
16076;DHT22;8142;48.242;11.644;2022-10-16T05:28:34;12.30;99.90
16076;DHT22;8142;48.242;11.644;2022-10-16T05:31:05;12.40;99.90
16076;DHT22;8142;48.242;11.644;2022-10-16T05:33:31;12.40;99.90
16076;DHT22;8142;48.242;11.644;2022-10-16T05:36:01;12.50;99.90
16076;DHT22;8142;48.242;11.644;2022-10-16T05:38:28;12.50;99.90
16076;DHT22;8142;48.242;11.644;2022-10-16T05:40:54;12.60;99.90
16076;DHT22;8142;48.242;11.644;2022-10-16T05:43:20;12.60;99.90
16076;DHT22;8142;48.242;11.644;2022-10-16T05:45:54;12.70;99.90
16076;DHT22;8142;48.242;11.644;2022-10-16T05:48:20;12.70;99.90
16076;DHT22;8142;48.242;11.644;2022-10-16T05:50:46;12.70;99.90
16076;DHT22;8142;48.242;11.644;2022-10-16T05:53:12;12.70;99.90
16076;DHT22;8142;48.242;11.644;2022-10-16T05:55:37;12.90;99.90
16076;DHT22;8142;48.242;11.644;2022-10-16T05:58:03;12.90;99.90
16076;DHT22;8142;48.242;11.644;2022-10-16T06:00:29;12.90;99.90
16076;DHT22;8142;48.242;11.644;2022-10-16T06:02:55;13.00;99.90
16076;DHT22;8142;48.242;11.644;2022-10-16T06:05:21;13.00;99.90
16076;DHT22;8142;48.242;11.644;2022-10-16T06:07:46;13.00;99.90
16076;DHT22;8142;48.242;11.644;2022-10-16T06:10:12;13.00;99.90
16076;DHT22;8142;48.242;11.644;2022-10-16T06:12:38;13.10;99.90
16076;DHT22;8142;48.242;11.644;2022-10-16T06:15:04;13.10;99.90
16076;DHT22;8142;48.242;11.644;2022-10-16T06:17:31;13.10;99.90
16076;DHT22;8142;48.242;11.644;2022-10-16T06:19:56;13.10;99.90
16076;DHT22;8142;48.242;11.644;2022-10-16T06:22:22;13.10;99.90
16076;DHT22;8142;48.242;11.644;2022-10-16T06:24:48;13.10;99.90
16076;DHT22;8142;48.242;11.644;2022-10-16T06:27:15;13.10;99.90
16076;DHT22;8142;48.242;11.644;2022-10-16T06:29:41;13.20;99.90
16076;DHT22;8142;48.242;11.644;2022-10-16T06:32:08;13.20;99.90
16076;DHT22;8142;48.242;11.644;2022-10-16T06:34:35;13.20;99.90
16076;DHT22;8142;48.242;11.644;2022-10-16T06:37:01;13.20;99.90
16076;DHT22;8142;48.242;11.644;2022-10-16T06:39:27;13.20;99.90
16076;DHT22;8142;48.242;11.644;2022-10-16T06:41:52;13.20;99.90
16076;DHT22;8142;48.242;11.644;2022-10-16T06:44:18;13.20;99.90
16076;DHT22;8142;48.242;11.644;2022-10-16T06:46:44;13.30;99.90
16076;DHT22;8142;48.242;11.644;2022-10-16T06:49:10;13.20;99.90
16076;DHT22;8142;48.242;11.644;2022-10-16T06:51:36;13.30;99.90
16076;DHT22;8142;48.242;11.644;2022-10-16T06:54:06;13.20;99.90
16076;DHT22;8142;48.242;11.644;2022-10-16T06:56:32;13.20;99.90
16076;DHT22;8142;48.242;11.644;2022-10-16T06:58:59;13.30;99.90
16076;DHT22;8142;48.242;11.644;2022-10-16T07:01:25;13.30;99.90
16076;DHT22;8142;48.242;11.644;2022-10-16T07:03:51;13.30;99.90
16076;DHT22;8142;48.242;11.644;2022-10-16T07:06:19;13.30;99.90
16076;DHT22;8142;48.242;11.644;2022-10-16T07:08:46;13.30;99.90
16076;DHT22;8142;48.242;11.644;2022-10-16T07:11:21;13.30;99.90
16076;DHT22;8142;48.242;11.644;2022-10-16T07:13:50;13.40;99.90
16076;DHT22;8142;48.242;11.644;2022-10-16T07:16:21;13.40;99.90
16076;DHT22;8142;48.242;11.644;2022-10-16T07:18:48;13.50;99.90
16076;DHT22;8142;48.242;11.644;2022-10-16T07:21:20;13.40;99.90
16076;DHT22;8142;48.242;11.644;2022-10-16T07:23:53;13.40;99.90
16076;DHT22;8142;48.242;11.644;2022-10-16T07:26:19;13.50;99.90
16076;DHT22;8142;48.242;11.644;2022-10-16T07:28:46;13.40;99.90
16076;DHT22;8142;48.242;11.644;2022-10-16T07:31:13;13.60;99.90
16076;DHT22;8142;48.242;11.644;2022-10-16T07:33:41;13.60;99.90
16076;DHT22;8142;48.242;11.644;2022-10-16T07:36:08;13.70;99.90
16076;DHT22;8142;48.242;11.644;2022-10-16T07:38:34;13.60;99.90
16076;DHT22;8142;48.242;11.644;2022-10-16T07:41:02;13.80;99.90
16076;DHT22;8142;48.242;11.644;2022-10-16T07:43:29;13.90;99.90
16076;DHT22;8142;48.242;11.644;2022-10-16T07:45:55;14.00;99.90
16076;DHT22;8142;48.242;11.644;2022-10-16T07:48:22;14.10;99.90
16076;DHT22;8142;48.242;11.644;2022-10-16T07:50:49;14.20;99.90
16076;DHT22;8142;48.242;11.644;2022-10-16T07:53:15;14.20;99.90
16076;DHT22;8142;48.242;11.644;2022-10-16T07:55:41;14.20;99.90
16076;DHT22;8142;48.242;11.644;2022-10-16T07:58:07;14.30;99.90
16076;DHT22;8142;48.242;11.644;2022-10-16T08:00:33;14.30;99.90
16076;DHT22;8142;48.242;11.644;2022-10-16T08:02:59;14.30;99.90
16076;DHT22;8142;48.242;11.644;2022-10-16T08:05:30;14.40;99.90
16076;DHT22;8142;48.242;11.644;2022-10-16T08:07:57;14.40;99.90
16076;DHT22;8142;48.242;11.644;2022-10-16T08:10:25;14.50;99.90
16076;DHT22;8142;48.242;11.644;2022-10-16T08:12:52;14.50;99.90
16076;DHT22;8142;48.242;11.644;2022-10-16T08:15:18;14.50;99.90
16076;DHT22;8142;48.242;11.644;2022-10-16T08:17:44;14.60;99.90
16076;DHT22;8142;48.242;11.644;2022-10-16T08:20:11;14.60;99.90
16076;DHT22;8142;48.242;11.644;2022-10-16T08:22:37;14.70;99.90
16076;DHT22;8142;48.242;11.644;2022-10-16T08:25:02;14.70;99.90
16076;DHT22;8142;48.242;11.644;2022-10-16T08:27:32;14.70;99.90
16076;DHT22;8142;48.242;11.644;2022-10-16T08:29:58;14.80;99.90
16076;DHT22;8142;48.242;11.644;2022-10-16T08:32:24;14.80;99.90
16076;DHT22;8142;48.242;11.644;2022-10-16T08:34:50;14.80;99.90
16076;DHT22;8142;48.242;11.644;2022-10-16T08:37:16;14.90;99.90
16076;DHT22;8142;48.242;11.644;2022-10-16T08:39:42;14.80;99.90
16076;DHT22;8142;48.242;11.644;2022-10-16T08:50:43;14.90;99.90
16076;DHT22;8142;48.242;11.644;2022-10-16T08:53:26;15.00;99.90
16076;DHT22;8142;48.242;11.644;2022-10-16T08:55:54;15.10;99.90
16076;DHT22;8142;48.242;11.644;2022-10-16T08:58:22;15.30;99.90
16076;DHT22;8142;48.242;11.644;2022-10-16T09:00:56;15.30;99.90
16076;DHT22;8142;48.242;11.644;2022-10-16T09:03:42;15.40;99.90
16076;DHT22;8142;48.242;11.644;2022-10-16T09:06:49;15.40;99.90
16076;DHT22;8142;48.242;11.644;2022-10-16T09:20:26;15.80;99.90
16076;DHT22;8142;48.242;11.644;2022-10-16T09:23:08;15.90;99.90
16076;DHT22;8142;48.242;11.644;2022-10-16T09:25:36;15.90;99.90
16076;DHT22;8142;48.242;11.644;2022-10-16T09:28:04;16.10;99.90
16076;DHT22;8142;48.242;11.644;2022-10-16T09:30:30;16.10;99.90
16076;DHT22;8142;48.242;11.644;2022-10-16T09:32:58;16.20;99.90
16076;DHT22;8142;48.242;11.644;2022-10-16T09:35:46;16.30;99.90
16076;DHT22;8142;48.242;11.644;2022-10-16T09:38:28;16.40;99.90
16076;DHT22;8142;48.242;11.644;2022-10-16T09:40:56;16.50;99.90
16076;DHT22;8142;48.242;11.644;2022-10-16T09:43:46;16.60;99.90
16076;DHT22;8142;48.242;11.644;2022-10-16T09:48:49;16.80;99.90
16076;DHT22;8142;48.242;11.644;2022-10-16T09:51:23;16.90;99.90
16076;DHT22;8142;48.242;11.644;2022-10-16T09:53:58;17.00;99.90
16076;DHT22;8142;48.242;11.644;2022-10-16T09:56:33;17.10;99.90
16076;DHT22;8142;48.242;11.644;2022-10-16T09:59:08;17.10;99.90
16076;DHT22;8142;48.242;11.644;2022-10-16T10:01:39;17.20;99.90
16076;DHT22;8142;48.242;11.644;2022-10-16T10:04:06;17.30;99.90
16076;DHT22;8142;48.242;11.644;2022-10-16T10:06:47;17.40;99.90
16076;DHT22;8142;48.242;11.644;2022-10-16T10:09:24;17.40;99.90
16076;DHT22;8142;48.242;11.644;2022-10-16T10:11:58;17.50;99.90
16076;DHT22;8142;48.242;11.644;2022-10-16T10:14:25;17.60;99.90
16076;DHT22;8142;48.242;11.644;2022-10-16T10:19:36;17.70;99.90
16076;DHT22;8142;48.242;11.644;2022-10-16T10:25:41;17.80;99.90
16076;DHT22;8142;48.242;11.644;2022-10-16T10:28:15;17.90;99.90
16076;DHT22;8142;48.242;11.644;2022-10-16T10:44:18;18.20;99.90
16076;DHT22;8142;48.242;11.644;2022-10-16T10:47:30;18.30;99.90
16076;DHT22;8142;48.242;11.644;2022-10-16T10:50:07;18.30;99.90
16076;DHT22;8142;48.242;11.644;2022-10-16T10:55:22;18.40;99.90
16076;DHT22;8142;48.242;11.644;2022-10-16T11:06:08;18.70;99.90
16076;DHT22;8142;48.242;11.644;2022-10-16T11:08:39;18.80;99.90
16076;DHT22;8142;48.242;11.644;2022-10-16T11:11:20;18.80;99.90
16076;DHT22;8142;48.242;11.644;2022-10-16T11:16:33;19.00;99.90
16076;DHT22;8142;48.242;11.644;2022-10-16T11:19:13;19.00;99.90
16076;DHT22;8142;48.242;11.644;2022-10-16T11:21:53;19.10;99.90
16076;DHT22;8142;48.242;11.644;2022-10-16T11:27:03;19.20;99.90
16076;DHT22;8142;48.242;11.644;2022-10-16T11:29:31;19.30;99.90
16076;DHT22;8142;48.242;11.644;2022-10-16T11:32:05;19.30;99.90
16076;DHT22;8142;48.242;11.644;2022-10-16T11:34:36;19.30;99.90
16076;DHT22;8142;48.242;11.644;2022-10-16T11:37:36;19.40;99.90
16076;DHT22;8142;48.242;11.644;2022-10-16T11:40:19;19.40;99.90
16076;DHT22;8142;48.242;11.644;2022-10-16T11:42:50;19.50;99.90
16076;DHT22;8142;48.242;11.644;2022-10-16T11:45:33;19.50;99.90
16076;DHT22;8142;48.242;11.644;2022-10-16T11:48:08;19.50;99.90
16076;DHT22;8142;48.242;11.644;2022-10-16T11:50:59;19.50;99.90
16076;DHT22;8142;48.242;11.644;2022-10-16T11:56:07;19.60;99.90
16076;DHT22;8142;48.242;11.644;2022-10-16T11:58:52;19.70;99.90
16076;DHT22;8142;48.242;11.644;2022-10-16T12:11:44;19.90;99.90
16076;DHT22;8142;48.242;11.644;2022-10-16T12:16:51;20.00;99.90
16076;DHT22;8142;48.242;11.644;2022-10-16T12:19:19;20.00;99.90
16076;DHT22;8142;48.242;11.644;2022-10-16T12:21:45;20.00;99.90
16076;DHT22;8142;48.242;11.644;2022-10-16T12:26:54;20.00;99.90
16076;DHT22;8142;48.242;11.644;2022-10-16T12:29:40;20.00;99.90
16076;DHT22;8142;48.242;11.644;2022-10-16T12:32:26;19.90;99.90
16076;DHT22;8142;48.242;11.644;2022-10-16T12:34:53;19.90;99.90
16076;DHT22;8142;48.242;11.644;2022-10-16T12:37:22;19.90;99.90
16076;DHT22;8142;48.242;11.644;2022-10-16T12:39:50;19.90;99.90
16076;DHT22;8142;48.242;11.644;2022-10-16T12:42:30;20.00;99.90
16076;DHT22;8142;48.242;11.644;2022-10-16T12:44:56;20.00;99.90
16076;DHT22;8142;48.242;11.644;2022-10-16T12:49:57;20.00;99.90
16076;DHT22;8142;48.242;11.644;2022-10-16T12:54:57;20.00;99.90
16076;DHT22;8142;48.242;11.644;2022-10-16T12:57:36;20.10;99.90
16076;DHT22;8142;48.242;11.644;2022-10-16T13:06:26;20.20;99.90
16076;DHT22;8142;48.242;11.644;2022-10-16T13:11:52;20.20;99.90
16076;DHT22;8142;48.242;11.644;2022-10-16T13:17:11;20.20;99.90
16076;DHT22;8142;48.242;11.644;2022-10-16T13:19:48;20.20;99.90
16076;DHT22;8142;48.242;11.644;2022-10-16T13:25:16;20.20;99.90
16076;DHT22;8142;48.242;11.644;2022-10-16T13:27:54;20.20;99.90
16076;DHT22;8142;48.242;11.644;2022-10-16T13:30:26;20.20;99.90
16076;DHT22;8142;48.242;11.644;2022-10-16T13:33:02;20.20;99.90
16076;DHT22;8142;48.242;11.644;2022-10-16T13:35:32;20.20;99.90
16076;DHT22;8142;48.242;11.644;2022-10-16T13:38:16;20.20;99.90
16076;DHT22;8142;48.242;11.644;2022-10-16T13:40:57;20.20;99.90
16076;DHT22;8142;48.242;11.644;2022-10-16T13:45:56;20.20;99.90
16076;DHT22;8142;48.242;11.644;2022-10-16T13:48:22;20.20;99.90
16076;DHT22;8142;48.242;11.644;2022-10-16T13:51:05;20.20;99.90
16076;DHT22;8142;48.242;11.644;2022-10-16T13:53:33;20.20;99.90
16076;DHT22;8142;48.242;11.644;2022-10-16T13:56:01;20.20;99.90
16076;DHT22;8142;48.242;11.644;2022-10-16T13:58:27;20.20;99.90
16076;DHT22;8142;48.242;11.644;2022-10-16T14:00:58;20.20;99.90
16076;DHT22;8142;48.242;11.644;2022-10-16T14:03:26;20.30;99.90
16076;DHT22;8142;48.242;11.644;2022-10-16T14:06:01;20.30;99.90
16076;DHT22;8142;48.242;11.644;2022-10-16T14:08:29;20.40;99.90
16076;DHT22;8142;48.242;11.644;2022-10-16T14:11:00;20.40;99.90
16076;DHT22;8142;48.242;11.644;2022-10-16T14:16:01;20.60;99.90
16076;DHT22;8142;48.242;11.644;2022-10-16T14:18:31;20.60;99.90
16076;DHT22;8142;48.242;11.644;2022-10-16T14:21:04;20.60;99.90
16076;DHT22;8142;48.242;11.644;2022-10-16T14:23:36;20.60;99.90
16076;DHT22;8142;48.242;11.644;2022-10-16T14:28:36;20.70;99.90
16076;DHT22;8142;48.242;11.644;2022-10-16T14:31:31;20.70;99.90
16076;DHT22;8142;48.242;11.644;2022-10-16T14:33:58;20.70;99.90
16076;DHT22;8142;48.242;11.644;2022-10-16T14:36:26;20.80;99.90
16076;DHT22;8142;48.242;11.644;2022-10-16T14:39:06;20.80;99.90
16076;DHT22;8142;48.242;11.644;2022-10-16T14:41:45;20.80;99.90
16076;DHT22;8142;48.242;11.644;2022-10-16T14:44:12;20.80;99.90
16076;DHT22;8142;48.242;11.644;2022-10-16T14:46:41;20.80;99.90
16076;DHT22;8142;48.242;11.644;2022-10-16T14:51:40;20.80;99.90
16076;DHT22;8142;48.242;11.644;2022-10-16T14:54:15;20.80;99.90
16076;DHT22;8142;48.242;11.644;2022-10-16T14:56:52;20.80;99.90
16076;DHT22;8142;48.242;11.644;2022-10-16T14:59:19;20.80;99.90
16076;DHT22;8142;48.242;11.644;2022-10-16T15:01:47;20.80;99.90
16076;DHT22;8142;48.242;11.644;2022-10-16T15:04:13;20.70;99.90
16076;DHT22;8142;48.242;11.644;2022-10-16T15:06:40;20.70;99.90
16076;DHT22;8142;48.242;11.644;2022-10-16T15:09:06;20.70;99.90
16076;DHT22;8142;48.242;11.644;2022-10-16T15:11:33;20.60;99.90
16076;DHT22;8142;48.242;11.644;2022-10-16T15:13:59;20.60;99.90
16076;DHT22;8142;48.242;11.644;2022-10-16T15:16:24;20.60;99.90
16076;DHT22;8142;48.242;11.644;2022-10-16T15:18:50;20.50;99.90
16076;DHT22;8142;48.242;11.644;2022-10-16T15:23:50;20.50;99.90
16076;DHT22;8142;48.242;11.644;2022-10-16T15:26:16;20.50;99.90
16076;DHT22;8142;48.242;11.644;2022-10-16T15:28:42;20.50;99.90
16076;DHT22;8142;48.242;11.644;2022-10-16T15:31:08;20.40;99.90
16076;DHT22;8142;48.242;11.644;2022-10-16T15:33:34;20.40;99.90
16076;DHT22;8142;48.242;11.644;2022-10-16T15:36:01;20.30;99.90
16076;DHT22;8142;48.242;11.644;2022-10-16T15:38:28;20.30;99.90
16076;DHT22;8142;48.242;11.644;2022-10-16T15:40:54;20.30;99.90
16076;DHT22;8142;48.242;11.644;2022-10-16T15:43:20;20.30;99.90
16076;DHT22;8142;48.242;11.644;2022-10-16T15:46:03;20.30;99.90
16076;DHT22;8142;48.242;11.644;2022-10-16T15:48:30;20.20;99.90
16076;DHT22;8142;48.242;11.644;2022-10-16T15:50:56;20.20;99.90
16076;DHT22;8142;48.242;11.644;2022-10-16T15:53:22;20.20;99.90
16076;DHT22;8142;48.242;11.644;2022-10-16T15:55:48;20.10;99.90
16076;DHT22;8142;48.242;11.644;2022-10-16T15:58:14;20.00;99.90
16076;DHT22;8142;48.242;11.644;2022-10-16T16:00:40;19.90;99.90
16076;DHT22;8142;48.242;11.644;2022-10-16T16:03:06;19.80;99.90
16076;DHT22;8142;48.242;11.644;2022-10-16T16:05:32;19.70;99.90
16076;DHT22;8142;48.242;11.644;2022-10-16T16:07:58;19.60;99.90
16076;DHT22;8142;48.242;11.644;2022-10-16T16:10:24;19.50;99.90
16076;DHT22;8142;48.242;11.644;2022-10-16T16:12:50;19.50;99.90
16076;DHT22;8142;48.242;11.644;2022-10-16T16:15:22;19.40;99.90
16076;DHT22;8142;48.242;11.644;2022-10-16T16:17:48;19.30;99.90
16076;DHT22;8142;48.242;11.644;2022-10-16T16:20:14;19.30;99.90
16076;DHT22;8142;48.242;11.644;2022-10-16T16:22:40;19.20;99.90
16076;DHT22;8142;48.242;11.644;2022-10-16T16:25:06;19.10;99.90
16076;DHT22;8142;48.242;11.644;2022-10-16T16:27:32;19.10;99.90
16076;DHT22;8142;48.242;11.644;2022-10-16T16:30:01;19.10;99.90
16076;DHT22;8142;48.242;11.644;2022-10-16T16:32:29;19.00;99.90
16076;DHT22;8142;48.242;11.644;2022-10-16T16:34:54;18.90;99.90
16076;DHT22;8142;48.242;11.644;2022-10-16T16:37:20;18.80;99.90
16076;DHT22;8142;48.242;11.644;2022-10-16T16:39:46;18.80;99.90
16076;DHT22;8142;48.242;11.644;2022-10-16T16:42:12;18.70;99.90
16076;DHT22;8142;48.242;11.644;2022-10-16T16:44:38;18.60;99.90
16076;DHT22;8142;48.242;11.644;2022-10-16T16:47:05;18.50;99.90
16076;DHT22;8142;48.242;11.644;2022-10-16T16:49:31;18.40;99.90
16076;DHT22;8142;48.242;11.644;2022-10-16T16:51:57;18.30;99.90
16076;DHT22;8142;48.242;11.644;2022-10-16T16:54:23;18.20;99.90
16076;DHT22;8142;48.242;11.644;2022-10-16T16:56:49;18.10;99.90
16076;DHT22;8142;48.242;11.644;2022-10-16T16:59:17;18.00;99.90
16076;DHT22;8142;48.242;11.644;2022-10-16T17:01:45;17.90;99.90
16076;DHT22;8142;48.242;11.644;2022-10-16T17:04:12;17.90;99.90
16076;DHT22;8142;48.242;11.644;2022-10-16T17:06:38;17.80;99.90
16076;DHT22;8142;48.242;11.644;2022-10-16T17:09:06;17.70;99.90
16076;DHT22;8142;48.242;11.644;2022-10-16T17:11:33;17.60;99.90
16076;DHT22;8142;48.242;11.644;2022-10-16T17:14:00;17.60;99.90
16076;DHT22;8142;48.242;11.644;2022-10-16T17:16:32;17.50;99.90
16076;DHT22;8142;48.242;11.644;2022-10-16T17:19:03;17.40;99.90
16076;DHT22;8142;48.242;11.644;2022-10-16T17:21:29;17.30;99.90
16076;DHT22;8142;48.242;11.644;2022-10-16T17:23:57;17.30;99.90
16076;DHT22;8142;48.242;11.644;2022-10-16T17:26:24;17.20;99.90
16076;DHT22;8142;48.242;11.644;2022-10-16T17:28:52;17.10;99.90
16076;DHT22;8142;48.242;11.644;2022-10-16T17:31:22;17.10;99.90
16076;DHT22;8142;48.242;11.644;2022-10-16T17:33:48;17.00;99.90
16076;DHT22;8142;48.242;11.644;2022-10-16T17:36:14;17.00;99.90
16076;DHT22;8142;48.242;11.644;2022-10-16T17:38:41;16.90;99.90
16076;DHT22;8142;48.242;11.644;2022-10-16T17:43:40;16.80;99.90
16076;DHT22;8142;48.242;11.644;2022-10-16T17:46:07;16.80;99.90
16076;DHT22;8142;48.242;11.644;2022-10-16T17:48:38;16.70;99.90